Latest Weather Observations for Adelaide Airport

IDS60801

Issued at 8:31 pm CDT Monday 23 January 2017 (issued every 30 minutes, with the page automatically refreshed every 10 minutes)

About weather observations | Map of weather stations | Latest weather observations for SA | Other Formats
Station Details ID: 023034 Name: ADELAIDE AIRPORT Lat: -34.95 Lon: 138.52 Height: 2.0 m
Data from the previous 72 hours. | See also: Recent months at Adelaide Airport
Date/Time
CDT
Temp
°C
App
Temp
°C
Dew
Point
°C
Rel
Hum
%
Delta-T
°C
Wind Press
QNH
hPa
Press
MSL
hPa
Rain since
9am
mm
Dir  Spd
km/h
Gust
km/h
Spd
kts
Gust
kts
23/08:00pm 24.0 26.6 21.9 88 1.4 NNW 11 15 6 8 1006.2 1006.1 8.4
23/07:30pm 23.8 25.8 21.5 87 1.5 NNW 13 15 7 8 1005.8 1005.7 8.4
23/07:00pm 24.1 25.9 21.8 87 1.5 NNW 15 17 8 9 1005.6 1005.5 8.4
23/06:30pm 24.1 26.0 22.0 88 1.4 N 15 19 8 10 1004.9 1004.8 8.2
23/06:00pm 23.9 26.9 22.0 89 1.3 NNE 9 13 5 7 1004.3 1004.2 8.2
23/05:30pm 23.1 25.2 21.7 92 0.9 NE 13 17 7 9 1004.5 1004.4 8.2
23/05:24pm 22.8 24.8 20.7 88 1.4 NE 11 17 6 9 1004.6 1004.5 8.0
23/05:00pm 22.8 25.3 21.1 90 1.1 N 9 15 5 8 1005.5 1005.4 6.6
23/04:52pm 22.8 25.9 21.1 90 1.1 NNE 6 9 3 5 1005.6 1005.5 6.4
23/04:30pm 22.4 25.3 21.0 92 0.9 SSW 7 11 4 6 1005.9 1005.8 4.8
23/04:15pm 22.5 24.6 21.0 91 1.0 SSW 11 15 6 8 1006.0 1005.9 3.0
23/04:00pm 23.0 27.2 20.9 88 1.4 CALM 0 7 0 4 1006.2 1006.1 2.6
23/03:30pm 23.3 25.1 21.2 88 1.4 SW 13 19 7 10 1005.9 1005.8 2.4
23/03:00pm 24.2 27.8 21.3 84 1.9 NW 4 11 2 6 1006.1 1006.0 2.2
23/02:30pm 23.6 26.2 20.5 83 2.0 ESE 7 11 4 6 1005.2 1005.1 2.2
23/02:00pm 22.7 24.2 21.2 91 1.0 SE 15 19 8 10 1005.2 1005.1 2.2
23/01:45pm 22.3 23.6 20.9 92 0.9 SE 15 17 8 9 1005.4 1005.3 2.2
23/01:30pm 22.0 24.2 20.3 90 1.1 S 9 13 5 7 1006.5 1006.4 1.8
23/01:00pm 23.3 23.8 20.1 82 2.1 WSW 17 22 9 12 1006.7 1006.6 0.2
23/12:30pm 25.1 26.1 18.7 67 4.1 S 11 15 6 8 1005.8 1005.7 0.0
23/12:00pm 24.9 25.0 18.3 66 4.2 SSW 15 19 8 10 1006.1 1006.0 0.0
23/11:30am 24.8 24.9 20.4 76 2.9 WSW 20 26 11 14 1006.4 1006.3 0.0
23/11:00am 26.4 24.4 15.0 49 6.9 W 19 26 10 14 1005.6 1005.5 0.0
23/10:30am 28.9 28.9 17.2 49 7.4 W 13 17 7 9 1004.8 1004.7 0.0
23/10:00am 29.2 29.1 18.7 53 6.8 N 17 22 9 12 1004.5 1004.4 0.0
23/09:30am 27.8 30.2 17.1 52 6.7 CALM 0 6 0 3 1004.3 1004.2 0.0
23/09:00am 27.1 28.7 18.3 58 5.6 WNW 7 9 4 5 1004.4 1004.3 0.0
23/08:30am 27.6 28.4 12.5 39 8.8 CALM 0 0 0 0 1004.5 1004.4 0.0
23/08:00am 27.2 26.9 11.3 37 9.1 N 4 7 2 4 1004.2 1004.1 0.0
23/07:30am 25.5 26.6 17.0 59 5.3 E 7 9 4 5 1004.0 1003.9 0.0
23/07:00am 24.4 27.4 18.4 69 3.8 CALM 0 0 0 0 1004.1 1004.0 0.0
23/06:30am 24.0 26.4 17.1 65 4.3 CALM 0 0 0 0 1004.0 1003.9 0.0
23/06:00am 24.1 24.8 14.5 55 5.7 SW 4 9 2 5 1003.8 1003.7 0.0
23/05:30am 25.6 26.0 11.3 40 8.1 CALM 0 0 0 0 1003.9 1003.8 0.0
23/05:00am 26.3 25.1 10.2 36 9.0 N 7 9 4 5 1003.6 1003.5 0.0
23/04:30am 25.9 24.6 9.9 36 8.9 W 7 7 4 4 1003.8 1003.7 0.0
23/04:00am 27.0 25.2 7.9 30 10.3 NNE 7 9 4 5 1004.0 1003.9 0.0
23/03:30am 25.6 26.7 13.6 47 7.1 CALM 0 0 0 0 1004.2 1004.1 0.0
23/03:00am 26.5 25.2 10.0 35 9.2 ESE 7 7 4 4 1004.3 1004.2 0.0
23/02:30am 26.4 24.8 10.1 36 9.1 ESE 9 9 5 5 1005.0 1004.9 0.0
23/02:00am 26.5 23.2 8.2 31 9.9 E 15 17 8 9 1005.5 1005.4 0.0
23/01:30am 26.6 24.0 7.8 30 10.1 ESE 11 13 6 7 1006.4 1006.3 0.0
23/01:00am 26.8 23.8 7.5 29 10.3 ESE 13 15 7 8 1006.8 1006.7 0.0
23/12:30am 26.9 24.0 8.0 30 10.2 SE 13 17 7 9 1007.3 1007.2 0.0
23/12:00am 26.9 23.7 8.3 31 10.1 SE 15 20 8 11 1007.3 1007.2 0.0
 
Date/Time
CDT
Temp
°C
App
Temp
°C
Dew
Point
°C
Rel
Hum
%
Delta-T
°C
Wind Press
QNH
hPa
Press
MSL
hPa
Rain since
9am
mm
Dir  Spd
km/h
Gust
km/h
Spd
kts
Gust
kts
22/11:30pm 27.0 24.4 9.2 32 9.8 SSW 13 15 7 8 1007.4 1007.4 0.0
22/11:00pm 25.7 25.5 17.6 61 5.1 WSW 15 17 8 9 1007.4 1007.4 0.0
22/10:30pm 25.1 26.2 18.0 64 4.5 SW 9 13 5 7 1007.1 1007.0 0.0
22/10:00pm 26.2 26.3 15.5 51 6.5 SSW 9 11 5 6 1006.8 1006.7 0.0
22/09:30pm 27.9 25.4 8.3 29 10.7 SE 11 15 6 8 1007.1 1007.0 0.0
22/09:00pm 27.8 24.9 8.1 29 10.7 S 13 15 7 8 1007.5 1007.5 0.0
22/08:30pm 28.6 25.2 7.5 26 11.4 SSE 15 19 8 10 1007.9 1007.9 0.0
22/08:00pm 27.9 25.0 9.8 32 10.1 S 15 19 8 10 1007.9 1007.9 0.0
22/07:30pm 27.0 24.1 12.4 40 8.5 SSW 19 24 10 13 1008.2 1008.2 0.0
22/07:00pm 29.1 27.2 11.9 34 10.0 SW 13 15 7 8 1007.8 1007.8 0.0
22/06:30pm 31.0 28.6 7.0 22 13.0 SSW 9 13 5 7 1007.6 1007.6 0.0
22/06:00pm 29.7 26.4 6.5 23 12.4 SW 13 19 7 10 1007.8 1007.8 0.0
22/05:30pm 29.5 26.4 8.7 27 11.5 SW 15 19 8 10 1008.0 1008.0 0.0
22/05:00pm 30.0 25.8 7.6 24 12.2 SW 19 24 10 13 1008.3 1008.3 0.0
22/04:30pm 30.6 26.7 6.9 22 12.8 SW 17 20 9 11 1008.5 1008.5 0.0
22/04:00pm 30.1 27.8 8.9 26 11.8 SW 11 15 6 8 1008.7 1008.7 0.0
22/03:30pm 28.8 27.1 14.8 42 8.5 WSW 17 22 9 12 1009.1 1009.1 0.0
22/03:00pm 27.8 26.7 17.3 52 6.6 WSW 19 28 10 15 1009.2 1009.2 0.0
22/02:30pm 28.0 26.5 15.4 46 7.7 WSW 17 22 9 12 1009.3 1009.3 0.0
22/02:00pm 27.4 26.0 17.0 53 6.5 W 20 26 11 14 1009.6 1009.6 0.0
22/01:30pm 29.4 27.1 11.9 34 10.2 W 15 20 8 11 1009.9 1009.9 0.0
22/01:00pm 31.7 28.3 6.1 20 13.7 N 13 19 7 10 1010.6 1010.6 0.0
22/12:30pm 30.9 26.4 4.2 18 13.8 N 17 24 9 13 1010.9 1010.9 0.0
22/12:00pm 31.1 26.7 7.2 22 13.0 NNE 20 30 11 16 1011.3 1011.3 0.0
22/11:30am 30.2 23.8 5.1 20 13.1 N 28 37 15 20 1011.6 1011.6 0.0
22/11:00am 29.9 23.7 4.2 19 13.2 N 26 33 14 18 1011.9 1011.9 0.0
22/10:30am 29.1 23.6 5.9 23 12.2 NNE 24 32 13 17 1011.9 1011.9 0.0
22/10:00am 27.8 23.5 6.9 26 11.1 N 19 28 10 15 1012.3 1012.3 0.0
22/09:30am 26.3 25.1 9.6 35 9.2 NW 6 9 3 5 1012.7 1012.7 0.0
22/09:00am 25.2 22.9 9.0 35 8.8 NNE 11 15 6 8 1012.9 1012.9 0.0
22/08:30am 23.7 21.1 9.3 40 7.8 NNE 13 17 7 9 1012.5 1012.5 0.0
22/08:00am 22.2 19.7 9.8 45 6.7 N 13 17 7 9 1012.4 1012.4 0.0
22/07:30am 18.8 19.9 13.5 71 3.0 CALM 0 4 0 2 1012.1 1012.1 0.0
22/07:00am 16.4 15.6 11.6 73 2.6 ESE 7 9 4 5 1011.8 1011.8 0.0
22/06:30am 15.8 16.1 12.1 78 2.0 N 2 7 1 4 1011.8 1011.8 0.0
22/06:00am 16.0 15.3 12.0 77 2.2 NNW 7 7 4 4 1011.5 1011.5 0.0
22/05:30am 16.2 15.6 11.8 75 2.4 NNW 6 9 3 5 1011.3 1011.3 0.0
22/05:00am 16.4 17.2 12.4 77 2.2 CALM 0 0 0 0 1011.2 1011.2 0.0
22/04:30am 16.2 17.0 12.4 78 2.1 CALM 0 0 0 0 1011.1 1011.1 0.0
22/04:00am 16.4 16.0 12.4 77 2.2 NE 6 9 3 5 1011.4 1011.4 0.0
22/03:30am 16.9 17.7 12.6 76 2.4 CALM 0 0 0 0 1011.4 1011.4 0.0
22/03:00am 17.1 17.9 12.6 75 2.5 CALM 0 0 0 0 1011.6 1011.6 0.0
22/02:30am 18.0 18.8 12.4 70 3.1 CALM 0 2 0 1 1012.0 1012.0 0.0
22/02:00am 18.6 17.9 12.1 66 3.6 ESE 7 9 4 5 1012.3 1012.3 0.0
22/01:30am 19.5 18.4 11.9 61 4.2 E 9 11 5 6 1012.5 1012.5 0.0
22/01:00am 19.3 15.7 11.9 62 4.1 ESE 22 28 12 15 1012.7 1012.7 0.0
22/12:30am 19.5 17.1 11.5 60 4.4 ESE 15 20 8 11 1012.8 1012.8 0.0
22/12:00am 19.1 15.8 11.0 59 4.4 ESE 19 26 10 14 1012.9 1012.9 0.0
 
Date/Time
CDT
Temp
°C
App
Temp
°C
Dew
Point
°C
Rel
Hum
%
Delta-T
°C
Wind Press
QNH
hPa
Press
MSL
hPa
Rain since
9am
mm
Dir  Spd
km/h
Gust
km/h
Spd
kts
Gust
kts
21/11:30pm 19.5 15.7 11.1 58 4.6 ESE 22 32 12 17 1012.8 1012.8 0.0
21/11:00pm 19.1 15.1 11.9 63 4.0 ESE 24 32 13 17 1013.2 1013.2 0.0
21/10:30pm 19.4 15.1 12.2 63 4.0 ESE 26 33 14 18 1013.5 1013.5 0.0
21/10:00pm 19.8 16.7 12.3 62 4.2 ESE 20 28 11 15 1013.6 1013.6 0.0
21/09:30pm 20.3 16.5 12.3 60 4.5 ESE 24 32 13 17 1013.4 1013.4 0.0
21/09:00pm 21.3 18.1 11.8 54 5.3 SE 20 28 11 15 1013.3 1013.3 0.0
21/08:30pm 22.5 19.4 11.6 50 6.1 SE 19 26 10 14 1013.1 1013.1 0.0
21/08:00pm 23.7 20.2 12.3 48 6.5 SSE 22 28 12 15 1012.9 1012.9 0.0
21/07:30pm 22.7 20.4 14.6 60 4.8 SSW 20 26 11 14 1012.7 1012.7 0.0
21/07:00pm 22.4 18.8 13.2 56 5.3 SW 24 32 13 17 1012.4 1012.4 0.0
21/06:30pm 22.5 18.8 12.7 54 5.6 SW 24 32 13 17 1012.3 1012.3 0.0
21/06:00pm 22.2 18.1 12.7 55 5.4 SSW 26 32 14 17 1012.4 1012.4 0.0
21/05:30pm 22.1 17.5 12.2 53 5.6 SSW 28 35 15 19 1012.6 1012.6 0.0
21/05:00pm 22.3 17.4 12.6 54 5.5 SW 30 35 16 19 1012.8 1012.8 0.0
21/04:30pm 23.0 18.5 12.5 51 6.0 SW 28 33 15 18 1013.0 1013.0 0.0
21/04:00pm 23.8 20.3 13.3 51 6.1 SW 24 28 13 15 1013.3 1013.3 0.0
21/03:30pm 22.1 18.5 12.0 52 5.7 SW 22 30 12 16 1013.4 1013.4 0.0
21/03:00pm 22.6 19.2 12.6 53 5.7 SW 22 28 12 15 1013.8 1013.8 0.0
21/02:30pm 22.1 18.5 11.7 51 5.8 WSW 22 30 12 16 1014.0 1014.0 0.0
21/02:00pm 21.9 18.3 11.7 52 5.7 WSW 22 30 12 16 1014.2 1014.2 0.0
21/01:30pm 21.9 18.9 11.9 53 5.6 WSW 19 24 10 13 1014.2 1014.2 0.0
21/01:00pm 21.2 18.3 11.0 52 5.6 W 17 20 9 11 1014.3 1014.3 0.0
21/12:30pm 21.2 18.6 10.6 50 5.8 W 15 20 8 11 1014.6 1014.6 0.0
21/12:00pm 21.0 18.0 10.8 52 5.6 WSW 17 24 9 13 1014.7 1014.7 0.0
21/11:30am 20.7 17.8 11.0 53 5.3 W 17 20 9 11 1014.8 1014.8 0.0
21/11:00am 20.5 19.0 10.6 53 5.4 WNW 9 17 5 9 1014.9 1014.9 0.0
21/10:30am 19.7 18.2 10.7 56 4.9 SW 9 11 5 6 1015.4 1015.4 0.0
21/10:00am 19.2 18.1 10.5 57 4.7 E 7 15 4 8 1015.5 1015.5 0.0
21/09:30am 18.7 18.3 9.6 55 4.8 SSE 2 11 1 6 1015.7 1015.7 0.0
21/09:00am 18.6 17.6 10.4 59 4.4 SW 6 13 3 7 1015.7 1015.7 0.0
21/08:30am 17.3 16.0 10.1 62 3.8 WNW 7 9 4 5 1015.7 1015.7 0.0
21/08:00am 16.7 16.1 10.3 66 3.4 NNW 4 7 2 4 1015.1 1015.1 0.0
21/07:30am 16.4 15.4 11.0 70 2.9 ENE 7 11 4 6 1014.6 1014.6 0.0
21/07:00am 15.0 13.4 10.2 73 2.5 ESE 9 11 5 6 1014.4 1014.4 0.0
21/06:30am 14.0 12.1 10.6 80 1.8 SE 11 17 6 9 1014.1 1014.1 0.0
21/06:00am 14.4 12.5 10.6 78 2.0 SSE 11 13 6 7 1013.9 1013.9 0.0
21/05:30am 14.1 12.3 10.7 80 1.8 S 11 13 6 7 1013.8 1013.8 0.0
21/05:00am 14.4 12.1 10.6 78 2.0 SSE 13 17 7 9 1013.8 1013.8 0.0
21/04:30am 14.7 12.5 10.7 77 2.1 SSE 13 17 7 9 1013.5 1013.5 0.0
21/04:00am 15.2 12.9 10.4 73 2.5 SSE 13 15 7 8 1013.4 1013.4 0.0
21/03:30am 15.0 12.7 10.4 74 2.4 SE 13 17 7 9 1013.2 1013.2 0.0
21/03:00am 15.4 14.2 10.3 71 2.7 S 7 9 4 5 1013.2 1013.2 0.0
21/02:30am 15.9 14.2 10.0 68 3.1 SSE 9 13 5 7 1013.2 1013.2 0.0
21/02:00am 16.1 13.7 10.0 67 3.2 SSE 13 22 7 12 1013.3 1013.3 0.0
21/01:30am 16.3 13.2 10.2 67 3.2 SSE 17 22 9 12 1013.2 1013.2 0.0
21/01:00am 16.6 14.2 10.2 66 3.4 S 13 19 7 10 1013.3 1013.3 0.0
21/12:30am 15.7 13.9 10.8 72 2.6 S 11 19 6 10 1013.4 1013.4 0.0
21/12:00am 15.6 13.8 10.7 72 2.6 S 11 15 6 8 1013.2 1013.2 0.0
 
Date/Time
CDT
Temp
°C
App
Temp
°C
Dew
Point
°C
Rel
Hum
%
Delta-T
°C
Wind Press
QNH
hPa
Press
MSL
hPa
Rain since
9am
mm
Dir  Spd
km/h
Gust
km/h
Spd
kts
Gust
kts
20/11:30pm 15.7 13.5 10.8 72 2.6 S 13 17 7 9 1012.8 1012.8 0.0
20/11:00pm 16.3 14.1 10.7 69 3.0 S 13 17 7 9 1012.6 1012.6 0.0
20/10:30pm 16.4 13.8 10.8 69 3.0 S 15 20 8 11 1012.3 1012.3 0.0
20/10:00pm 16.6 13.6 10.6 67 3.2 SSE 17 24 9 13 1012.0 1012.0 0.0
20/09:30pm 17.0 13.4 10.0 63 3.7 SSE 19 28 10 15 1011.5 1011.5 0.0
20/09:00pm 17.6 14.1 10.3 62 3.9 SSE 19 28 10 15 1011.1 1011.1 0.0

Other Formats:

Comma delimited format used in spreadsheet applications
http://www.bom.gov.au/fwo/IDS60801/IDS60801.94672.axf

JavaScript Object Notation format (JSON) in row-major order
http://www.bom.gov.au/fwo/IDS60801/IDS60801.94672.json